createdAt,value
2017-07-03T00:04:15.485Z,13.70
2017-07-03T00:16:46.048Z,13.40
2017-07-03T00:22:58.527Z,13.30
2017-07-03T00:28:38.256Z,13.30
2017-07-03T00:34:17.332Z,13.30
2017-07-03T00:37:21.171Z,13.40
2017-07-03T00:43:22.224Z,13.40
2017-07-03T00:45:53.943Z,13.40
2017-07-03T00:48:25.208Z,13.50
2017-07-03T00:51:07.702Z,13.50
2017-07-03T00:53:42.060Z,13.50
2017-07-03T00:56:21.182Z,13.60
2017-07-03T00:59:07.568Z,13.60
2017-07-03T01:01:39.532Z,13.60
2017-07-03T01:04:09.108Z,13.60
2017-07-03T01:06:37.704Z,13.60
2017-07-03T01:09:15.538Z,13.60
2017-07-03T01:11:45.968Z,13.60
2017-07-03T01:14:24.017Z,13.70
2017-07-03T01:16:55.722Z,13.60
2017-07-03T01:20:00.313Z,13.60
2017-07-03T01:25:27.822Z,13.50
2017-07-03T01:28:00.309Z,13.50
2017-07-03T01:34:25.732Z,13.40
2017-07-03T01:37:06.896Z,13.40
2017-07-03T01:40:04.190Z,13.40
2017-07-03T01:42:44.283Z,13.40
2017-07-03T01:45:15.231Z,13.40
2017-07-03T01:47:42.873Z,13.40
2017-07-03T01:50:12.785Z,13.40
2017-07-03T01:52:41.742Z,13.40
2017-07-03T02:04:54.313Z,13.40
2017-07-03T02:07:27.216Z,13.50
2017-07-03T02:10:19.562Z,13.50
2017-07-03T02:13:18.593Z,13.40
2017-07-03T02:15:48.684Z,13.40
2017-07-03T02:18:16.365Z,13.40
2017-07-03T02:20:45.182Z,13.50
2017-07-03T02:23:21.984Z,13.50
2017-07-03T02:26:07.161Z,13.40
2017-07-03T02:28:37.489Z,13.40
2017-07-03T02:31:06.820Z,13.40
2017-07-03T02:43:24.989Z,13.40
2017-07-03T02:46:02.632Z,13.30
2017-07-03T02:48:34.099Z,13.30
2017-07-03T02:51:01.897Z,13.40
2017-07-03T02:53:36.436Z,13.40
2017-07-03T02:56:05.969Z,13.40
2017-07-03T02:58:38.243Z,13.50
2017-07-03T03:01:16.436Z,13.40
2017-07-03T03:03:46.807Z,13.40
2017-07-03T03:06:15.153Z,13.40
2017-07-03T03:08:50.936Z,13.40
2017-07-03T03:11:32.725Z,13.40
2017-07-03T03:14:09.663Z,13.30
2017-07-03T03:16:37.262Z,13.30
2017-07-03T03:19:05.657Z,13.30
2017-07-03T03:21:36.071Z,13.40
2017-07-03T03:27:21.507Z,13.40
2017-07-03T03:29:49.157Z,13.50
2017-07-03T03:32:17.579Z,13.40
2017-07-03T03:34:48.166Z,13.50
2017-07-03T03:37:18.241Z,13.50
2017-07-03T03:39:47.745Z,13.50
2017-07-03T03:42:20.938Z,13.40
2017-07-03T03:44:49.400Z,13.40
2017-07-03T03:47:18.332Z,13.40
2017-07-03T03:52:55.333Z,13.50
2017-07-03T03:55:26.796Z,13.50
2017-07-03T03:57:56.606Z,13.50
2017-07-03T04:00:32.276Z,13.60
2017-07-03T04:02:59.971Z,13.60
2017-07-03T04:05:27.860Z,13.60
2017-07-03T04:07:56.256Z,13.50
2017-07-03T04:10:26.487Z,13.50
2017-07-03T04:12:55.478Z,13.60
2017-07-03T04:18:39.760Z,13.60
2017-07-03T04:21:25.274Z,13.60
2017-07-03T04:23:55.258Z,13.60
2017-07-03T04:26:22.935Z,13.60
2017-07-03T04:28:51.901Z,13.50
2017-07-03T04:31:21.688Z,13.60
2017-07-03T04:33:50.043Z,13.70
2017-07-03T04:36:21.640Z,13.70
2017-07-03T04:38:52.496Z,13.70
2017-07-03T04:41:21.699Z,13.70
2017-07-03T04:43:49.885Z,13.80
2017-07-03T04:46:22.730Z,13.80
2017-07-03T04:48:50.358Z,13.80
2017-07-03T04:51:17.948Z,13.90
2017-07-03T04:53:46.421Z,13.90
2017-07-03T04:56:14.005Z,14.00
2017-07-03T04:58:41.579Z,14.10
2017-07-03T05:01:09.172Z,14.10
2017-07-03T05:03:38.601Z,14.20
2017-07-03T05:06:06.198Z,14.20
2017-07-03T05:08:33.746Z,14.20
2017-07-03T05:11:01.297Z,14.30
2017-07-03T05:13:28.860Z,14.20
2017-07-03T05:15:58.214Z,14.20
2017-07-03T05:18:25.780Z,14.20
2017-07-03T05:20:54.159Z,14.20
2017-07-03T05:23:21.722Z,14.20
2017-07-03T05:25:49.297Z,14.30
2017-07-03T05:28:17.612Z,14.40
2017-07-03T05:30:45.147Z,14.40
2017-07-03T05:33:13.493Z,15.10
2017-07-03T05:35:41.583Z,15.10
2017-07-03T05:38:09.583Z,15.20
2017-07-03T05:40:37.911Z,15.20
2017-07-03T05:43:11.125Z,15.20
2017-07-03T05:45:38.728Z,15.70
2017-07-03T05:48:07.025Z,15.60
2017-07-03T05:50:36.196Z,15.50
2017-07-03T05:53:03.727Z,15.50
2017-07-03T05:55:31.271Z,15.30
2017-07-03T05:57:58.874Z,15.60
2017-07-03T06:00:26.457Z,16.30
2017-07-03T06:02:54.775Z,17.10
2017-07-03T06:05:22.366Z,17.10
2017-07-03T06:07:49.963Z,17.40
2017-07-03T06:10:17.529Z,17.40
2017-07-03T06:12:45.141Z,17.70
2017-07-03T06:15:12.711Z,17.80
2017-07-03T06:17:40.302Z,17.60
2017-07-03T06:20:07.868Z,17.30
2017-07-03T06:22:35.401Z,17.30
2017-07-03T06:25:02.995Z,17.50
2017-07-03T06:27:30.562Z,17.40
2017-07-03T06:29:58.138Z,17.20
2017-07-03T06:32:25.729Z,17.30
2017-07-03T06:34:53.299Z,17.50
2017-07-03T06:37:21.644Z,17.90
2017-07-03T06:39:49.209Z,17.90
2017-07-03T06:42:16.827Z,18.00
2017-07-03T06:44:44.414Z,17.90
2017-07-03T06:47:11.996Z,18.10
2017-07-03T06:49:39.558Z,18.10
2017-07-03T06:52:07.171Z,18.10
2017-07-03T06:54:34.747Z,17.90
2017-07-03T06:57:02.312Z,18.10
2017-07-03T06:59:29.904Z,18.50
2017-07-03T07:01:57.561Z,18.70
2017-07-03T07:04:25.244Z,18.70
2017-07-03T07:06:52.776Z,18.80
2017-07-03T07:09:20.348Z,19.10
2017-07-03T07:11:48.049Z,19.10
2017-07-03T07:14:15.676Z,19.30
2017-07-03T07:16:43.292Z,19.50
2017-07-03T07:19:10.852Z,19.60
2017-07-03T07:21:38.438Z,19.80
2017-07-03T07:24:06.396Z,19.60
2017-07-03T07:26:33.943Z,19.90
2017-07-03T07:29:01.535Z,20.10
2017-07-03T07:31:29.112Z,20.00
2017-07-03T07:33:57.793Z,20.00
2017-07-03T07:36:25.957Z,20.30
2017-07-03T07:38:54.058Z,20.50
2017-07-03T07:41:22.096Z,20.60
2017-07-03T07:43:50.418Z,20.70
2017-07-03T07:46:18.922Z,20.50
2017-07-03T07:48:46.482Z,20.50
2017-07-03T07:51:14.077Z,20.90
2017-07-03T07:53:41.656Z,20.70
2017-07-03T07:56:10.067Z,20.90
2017-07-03T07:58:38.390Z,21.40
2017-07-03T08:01:05.996Z,21.30
2017-07-03T08:03:33.548Z,21.00
2017-07-03T08:06:01.144Z,21.10
2017-07-03T08:08:28.724Z,21.30
2017-07-03T08:10:56.284Z,21.70
2017-07-03T08:13:24.642Z,21.50
2017-07-03T08:15:52.208Z,21.50
2017-07-03T08:18:19.780Z,21.80
2017-07-03T08:20:48.754Z,22.50
2017-07-03T08:23:17.129Z,22.60
2017-07-03T08:25:44.695Z,22.60
2017-07-03T08:28:12.283Z,22.50
2017-07-03T08:30:39.851Z,22.50
2017-07-03T08:33:07.404Z,22.50
2017-07-03T08:35:34.982Z,22.50
2017-07-03T08:38:02.604Z,23.10
2017-07-03T08:40:30.296Z,23.10
2017-07-03T08:42:57.922Z,23.30
2017-07-03T08:45:25.537Z,23.70
2017-07-03T08:47:53.138Z,23.80
2017-07-03T08:50:20.741Z,24.10
2017-07-03T08:52:48.321Z,25.30
2017-07-03T08:55:15.885Z,26.00
2017-07-03T08:57:43.453Z,26.70
2017-07-03T09:00:11.024Z,26.60
2017-07-03T09:02:38.591Z,26.00
2017-07-03T09:05:06.150Z,25.40
2017-07-03T09:07:33.706Z,25.00
2017-07-03T09:10:01.285Z,25.20
2017-07-03T09:12:28.842Z,25.40
2017-07-03T09:14:56.779Z,25.90
2017-07-03T09:17:24.346Z,25.80
2017-07-03T09:19:51.918Z,26.10
2017-07-03T09:22:19.786Z,26.70
2017-07-03T09:24:47.353Z,27.30
2017-07-03T09:27:14.927Z,27.90
2017-07-03T09:29:43.301Z,27.70
2017-07-03T09:32:10.880Z,27.10
2017-07-03T09:34:38.495Z,26.30
2017-07-03T09:37:07.746Z,25.60
2017-07-03T09:39:35.354Z,25.60
2017-07-03T09:42:02.911Z,25.30
2017-07-03T09:44:30.467Z,26.10
2017-07-03T09:46:57.987Z,27.50
2017-07-03T09:49:25.592Z,28.60
2017-07-03T09:51:53.153Z,28.60
2017-07-03T09:54:20.962Z,29.80
2017-07-03T09:56:49.299Z,30.60
2017-07-03T09:59:16.868Z,30.50
2017-07-03T10:01:44.442Z,31.40
2017-07-03T10:04:12.076Z,32.40
2017-07-03T10:06:39.636Z,32.90
2017-07-03T10:09:07.229Z,31.90
2017-07-03T10:11:34.835Z,29.50
2017-07-03T10:14:03.156Z,29.20
2017-07-03T10:16:30.748Z,29.10
2017-07-03T10:18:58.328Z,28.10
2017-07-03T10:21:25.949Z,27.40
2017-07-03T10:23:53.524Z,27.10
2017-07-03T10:26:21.083Z,27.50
2017-07-03T10:28:48.715Z,28.20
2017-07-03T10:31:17.107Z,28.60
2017-07-03T10:33:44.711Z,28.50
2017-07-03T10:36:12.314Z,27.70
2017-07-03T10:38:39.889Z,27.40
2017-07-03T10:41:07.457Z,27.00
2017-07-03T10:43:36.092Z,26.60
2017-07-03T10:46:03.679Z,25.80
2017-07-03T10:48:33.234Z,25.20
2017-07-03T10:51:01.540Z,24.00
2017-07-03T10:53:29.093Z,23.90
2017-07-03T10:55:56.715Z,24.30
2017-07-03T10:58:24.274Z,25.50
2017-07-03T11:00:51.837Z,27.40
2017-07-03T11:03:19.574Z,28.50
2017-07-03T11:05:47.137Z,29.70
2017-07-03T11:08:14.737Z,31.60
2017-07-03T11:10:42.330Z,31.20
2017-07-03T11:13:10.254Z,30.70
2017-07-03T11:15:37.848Z,30.30
2017-07-03T11:18:05.423Z,29.10
2017-07-03T11:20:32.961Z,27.10
2017-07-03T11:23:00.545Z,26.70
2017-07-03T11:25:28.141Z,26.20
2017-07-03T11:27:55.720Z,25.80
2017-07-03T11:30:23.308Z,25.40
2017-07-03T11:32:50.935Z,26.20
2017-07-03T11:35:18.526Z,27.80
2017-07-03T11:37:46.077Z,28.50
2017-07-03T11:40:13.677Z,29.60
2017-07-03T11:42:41.302Z,30.70
2017-07-03T11:45:08.868Z,32.30
2017-07-03T11:47:36.437Z,32.20
2017-07-03T11:50:04.043Z,32.70
2017-07-03T11:52:32.626Z,32.30
2017-07-03T11:55:00.201Z,32.00
2017-07-03T11:57:27.756Z,32.50
2017-07-03T11:59:55.318Z,31.80
2017-07-03T12:02:25.547Z,32.20
2017-07-03T12:04:53.124Z,32.00
2017-07-03T12:07:20.682Z,32.00
2017-07-03T12:09:48.259Z,32.40
2017-07-03T12:12:15.811Z,31.30
2017-07-03T12:14:43.367Z,30.80
2017-07-03T12:17:10.939Z,30.30
2017-07-03T12:19:38.535Z,29.30
2017-07-03T12:22:06.891Z,30.10
2017-07-03T12:24:34.472Z,30.00
2017-07-03T12:27:02.093Z,30.90
2017-07-03T12:29:29.664Z,31.40
2017-07-03T12:31:57.383Z,30.90
2017-07-03T12:34:25.737Z,29.00
2017-07-03T12:36:53.331Z,29.00
2017-07-03T12:39:20.906Z,29.60
2017-07-03T12:41:48.474Z,30.80
2017-07-03T12:44:16.817Z,32.00
2017-07-03T12:46:44.372Z,32.00
2017-07-03T12:49:11.932Z,30.90
2017-07-03T12:51:39.493Z,28.50
2017-07-03T12:54:07.062Z,27.50
2017-07-03T12:56:34.951Z,27.50
2017-07-03T12:59:03.324Z,27.60
2017-07-03T13:01:30.897Z,27.60
2017-07-03T13:03:58.448Z,29.00
2017-07-03T13:06:26.026Z,29.80
2017-07-03T13:08:53.562Z,29.20
2017-07-03T13:11:21.134Z,27.80
2017-07-03T13:13:48.737Z,26.70
2017-07-03T13:16:16.307Z,25.90
2017-07-03T13:18:43.866Z,25.40
2017-07-03T13:21:12.218Z,25.70
2017-07-03T13:23:39.882Z,25.70
2017-07-03T13:26:07.466Z,26.10
2017-07-03T13:28:35.077Z,27.00
2017-07-03T13:31:02.637Z,27.00
2017-07-03T13:33:30.241Z,26.40
2017-07-03T13:35:57.807Z,26.80
2017-07-03T13:38:25.331Z,26.70
2017-07-03T13:40:52.879Z,26.60
2017-07-03T13:43:21.195Z,25.90
2017-07-03T13:45:48.804Z,25.90
2017-07-03T13:48:17.364Z,27.30
2017-07-03T13:50:44.940Z,29.20
2017-07-03T13:53:12.524Z,30.40
2017-07-03T13:55:40.083Z,30.90
2017-07-03T13:58:07.651Z,31.10
2017-07-03T14:00:35.223Z,31.20
2017-07-03T14:03:04.561Z,31.60
2017-07-03T14:05:32.105Z,31.50
2017-07-03T14:08:00.486Z,32.00
2017-07-03T14:10:28.056Z,31.90
2017-07-03T14:12:56.393Z,31.60
2017-07-03T14:15:23.978Z,31.60
2017-07-03T14:17:51.546Z,31.70
2017-07-03T14:20:19.111Z,31.80
2017-07-03T14:22:46.669Z,31.30
2017-07-03T14:25:14.294Z,31.30
2017-07-03T14:27:41.967Z,31.10
2017-07-03T14:30:09.558Z,31.40
2017-07-03T14:32:37.098Z,31.00
2017-07-03T14:35:04.690Z,31.20
2017-07-03T14:37:32.391Z,31.70
2017-07-03T14:40:00.033Z,32.20
2017-07-03T14:42:27.607Z,32.10
2017-07-03T14:44:55.185Z,32.40
2017-07-03T14:47:22.829Z,31.80
2017-07-03T14:49:50.416Z,31.30
2017-07-03T14:52:18.011Z,31.70
2017-07-03T14:54:45.576Z,32.70
2017-07-03T14:57:13.138Z,32.80
2017-07-03T14:59:40.740Z,33.60
2017-07-03T15:02:08.307Z,33.40
2017-07-03T15:04:35.901Z,32.40
2017-07-03T15:07:04.227Z,32.80
2017-07-03T15:09:31.791Z,32.80
2017-07-03T15:11:59.445Z,32.70
2017-07-03T15:14:27.064Z,32.70
2017-07-03T15:16:55.493Z,33.10
2017-07-03T15:19:23.060Z,33.10
2017-07-03T15:21:51.053Z,32.80
2017-07-03T15:24:18.661Z,32.40
2017-07-03T15:26:46.235Z,30.90
2017-07-03T15:29:14.616Z,30.80
2017-07-03T15:31:43.001Z,30.60
2017-07-03T15:34:11.340Z,30.80
2017-07-03T15:36:38.952Z,30.80
2017-07-03T15:39:07.332Z,30.20
2017-07-03T15:41:35.688Z,30.90
2017-07-03T15:44:03.261Z,30.90
2017-07-03T15:46:31.591Z,32.00
2017-07-03T15:48:59.621Z,32.00
2017-07-03T15:51:27.202Z,32.30
2017-07-03T15:53:55.550Z,29.70
2017-07-03T15:56:23.134Z,29.70
2017-07-03T15:58:50.690Z,28.90
2017-07-03T16:01:18.233Z,28.30
2017-07-03T16:03:45.894Z,27.50
2017-07-03T16:06:13.435Z,27.60
2017-07-03T16:08:41.025Z,29.10
2017-07-03T16:11:08.603Z,31.00
2017-07-03T16:13:36.488Z,32.00
2017-07-03T16:16:04.123Z,32.80
2017-07-03T16:18:31.721Z,32.30
2017-07-03T16:20:59.526Z,32.20
2017-07-03T16:23:27.126Z,32.50
2017-07-03T16:25:54.714Z,32.00
2017-07-03T16:28:22.283Z,31.50
2017-07-03T16:30:50.039Z,30.30
2017-07-03T16:33:17.868Z,30.40
2017-07-03T16:35:45.511Z,30.10
2017-07-03T16:38:13.053Z,29.10
2017-07-03T16:40:40.665Z,28.10
2017-07-03T16:43:08.231Z,27.00
2017-07-03T16:45:35.882Z,26.30
2017-07-03T16:48:03.492Z,26.00
2017-07-03T16:50:38.458Z,25.70
2017-07-03T16:53:11.347Z,25.20
2017-07-03T16:55:41.360Z,24.60
2017-07-03T16:58:09.090Z,24.30
2017-07-03T17:00:36.649Z,24.20
2017-07-03T17:03:04.232Z,23.90
2017-07-03T17:05:31.828Z,23.60
2017-07-03T17:08:02.872Z,23.30
2017-07-03T17:10:31.019Z,23.10
2017-07-03T17:12:59.430Z,22.60
2017-07-03T17:15:27.025Z,22.50
2017-07-03T17:17:55.508Z,22.50
2017-07-03T17:20:23.862Z,22.40
2017-07-03T17:22:51.591Z,22.40
2017-07-03T17:25:19.147Z,22.30
2017-07-03T17:27:46.745Z,22.30
2017-07-03T17:30:14.378Z,22.30
2017-07-03T17:32:42.361Z,22.40
2017-07-03T17:35:10.374Z,22.40
2017-07-03T17:37:38.031Z,22.50
2017-07-03T17:40:05.613Z,22.40
2017-07-03T17:42:33.346Z,22.30
2017-07-03T17:45:00.948Z,22.20
2017-07-03T17:47:32.432Z,21.90
2017-07-03T17:50:00.511Z,21.90
2017-07-03T17:52:28.822Z,21.50
2017-07-03T17:55:00.381Z,21.50
2017-07-03T17:57:27.981Z,21.30
2017-07-03T17:59:55.537Z,21.20
2017-07-03T18:02:23.443Z,21.00
2017-07-03T18:04:51.789Z,20.90
2017-07-03T18:07:19.403Z,20.80
2017-07-03T18:09:46.984Z,20.80
2017-07-03T18:12:14.939Z,20.80
2017-07-03T18:14:42.523Z,20.80
2017-07-03T18:17:10.052Z,20.80
2017-07-03T18:19:37.636Z,20.70
2017-07-03T18:22:05.249Z,20.70
2017-07-03T18:24:33.240Z,20.50
2017-07-03T18:27:00.811Z,20.30
2017-07-03T18:29:29.157Z,20.00
2017-07-03T18:31:56.738Z,19.90
2017-07-03T18:34:24.296Z,19.80
2017-07-03T18:36:51.848Z,19.50
2017-07-03T18:39:19.393Z,19.30
2017-07-03T18:41:46.985Z,19.20
2017-07-03T18:44:14.551Z,19.00
2017-07-03T18:46:42.537Z,18.90
2017-07-03T18:49:10.102Z,18.80
2017-07-03T18:51:37.634Z,18.70
2017-07-03T18:54:05.242Z,18.70
2017-07-03T18:56:33.908Z,18.60
2017-07-03T18:59:01.619Z,18.60
2017-07-03T19:01:29.257Z,18.40
2017-07-03T19:03:56.815Z,18.50
2017-07-03T19:06:24.500Z,18.30
2017-07-03T19:08:52.368Z,18.20
2017-07-03T19:11:20.043Z,18.10
2017-07-03T19:13:47.669Z,18.00
2017-07-03T19:16:15.610Z,17.90
2017-07-03T19:18:43.230Z,17.80
2017-07-03T19:21:12.017Z,17.70
2017-07-03T19:23:39.653Z,17.60
2017-07-03T19:26:07.236Z,17.50
2017-07-03T19:28:34.834Z,17.40
2017-07-03T19:31:02.691Z,17.20
2017-07-03T19:33:30.676Z,17.20
2017-07-03T19:35:58.341Z,17.10
2017-07-03T19:38:26.005Z,17.00
2017-07-03T19:40:56.366Z,16.90
2017-07-03T19:43:24.823Z,16.70
2017-07-03T19:45:52.453Z,16.60
2017-07-03T19:48:20.263Z,16.60
2017-07-03T19:50:47.881Z,16.50
2017-07-03T19:53:15.494Z,16.40
2017-07-03T19:55:43.116Z,16.40
2017-07-03T19:58:10.659Z,16.30
2017-07-03T20:00:38.306Z,16.00
2017-07-03T20:03:06.824Z,15.90
2017-07-03T20:05:34.536Z,15.80
2017-07-03T20:08:02.164Z,15.60
2017-07-03T20:13:45.747Z,15.30
2017-07-03T20:16:13.318Z,15.20
2017-07-03T20:18:40.898Z,15.10
2017-07-03T20:21:13.103Z,14.90
2017-07-03T20:23:40.644Z,14.90
2017-07-03T20:26:10.927Z,14.80
2017-07-03T20:28:38.604Z,14.80
2017-07-03T20:31:06.174Z,14.70
2017-07-03T20:33:33.757Z,14.70
2017-07-03T20:36:01.326Z,14.50
2017-07-03T20:38:28.962Z,14.40
2017-07-03T20:40:57.305Z,14.40
2017-07-03T20:43:25.076Z,14.50
2017-07-03T20:45:52.709Z,14.60
2017-07-03T20:48:21.027Z,14.90
2017-07-03T20:50:51.238Z,14.80
2017-07-03T20:53:23.063Z,14.90
2017-07-03T20:55:50.628Z,15.00
2017-07-03T20:58:19.000Z,14.80
2017-07-03T21:00:46.552Z,14.80
2017-07-03T21:03:15.915Z,14.80
2017-07-03T21:05:43.487Z,14.70
2017-07-03T21:08:11.939Z,14.70
2017-07-03T21:10:40.254Z,14.70
2017-07-03T21:13:07.811Z,14.70
2017-07-03T21:15:36.174Z,14.70
2017-07-03T21:18:05.284Z,14.50
2017-07-03T21:20:32.846Z,14.40
2017-07-03T21:23:06.486Z,14.40
2017-07-03T21:25:35.729Z,14.40
2017-07-03T21:28:04.547Z,14.30
2017-07-03T21:31:15.978Z,14.20
2017-07-03T21:33:43.677Z,14.30
2017-07-03T21:36:12.184Z,14.30
2017-07-03T21:38:40.382Z,14.40
2017-07-03T21:41:08.050Z,14.40
2017-07-03T21:43:35.666Z,14.40
2017-07-03T21:46:04.929Z,14.30
2017-07-03T21:48:32.711Z,14.30
2017-07-03T21:51:04.782Z,14.20
2017-07-03T21:53:32.425Z,14.10
2017-07-03T21:56:00.402Z,14.00
2017-07-03T21:58:29.753Z,14.00
2017-07-03T22:00:57.509Z,13.90
2017-07-03T22:03:30.218Z,13.90
2017-07-03T22:05:57.891Z,13.90
2017-07-03T22:08:28.446Z,13.90
2017-07-03T22:10:56.541Z,13.90
2017-07-03T22:13:26.938Z,13.90
2017-07-03T22:15:54.667Z,13.90
2017-07-03T22:18:25.013Z,13.90
2017-07-03T22:20:53.556Z,13.90
2017-07-03T22:23:23.573Z,13.90
2017-07-03T22:25:51.221Z,13.80
2017-07-03T22:28:20.021Z,13.70
2017-07-03T22:30:48.430Z,13.60
2017-07-03T22:33:16.251Z,13.60
2017-07-03T22:35:46.444Z,13.50
2017-07-03T22:38:16.043Z,13.40
2017-07-03T22:40:47.462Z,13.40
2017-07-03T22:43:17.522Z,13.40
2017-07-03T22:45:48.361Z,13.30
2017-07-03T22:48:15.997Z,13.20
2017-07-03T22:50:44.455Z,13.20
2017-07-03T22:56:35.009Z,13.10
2017-07-03T22:59:02.946Z,13.10
2017-07-03T23:01:32.304Z,13.00
2017-07-03T23:04:03.912Z,12.90
2017-07-03T23:06:48.694Z,12.90
2017-07-03T23:09:16.463Z,12.90
2017-07-03T23:11:46.643Z,12.80
2017-07-03T23:20:45.793Z,13.10
2017-07-03T23:23:15.359Z,13.20
2017-07-03T23:25:43.045Z,13.20
2017-07-03T23:28:12.120Z,13.40
2017-07-03T23:30:41.401Z,13.60
2017-07-03T23:33:09.302Z,13.80
2017-07-03T23:35:37.571Z,14.00
2017-07-03T23:38:06.092Z,14.20
2017-07-03T23:40:33.733Z,14.40
2017-07-03T23:43:01.324Z,14.50
2017-07-03T23:45:32.640Z,14.70
2017-07-03T23:48:00.291Z,14.80
2017-07-03T23:50:27.935Z,14.80
2017-07-03T23:52:55.560Z,14.80
2017-07-03T23:55:23.174Z,14.90
2017-07-03T23:57:51.547Z,14.80
